createdAt,value
2022-10-11T00:00:05.367Z,29.15
2022-10-11T00:02:35.342Z,29.14
2022-10-11T00:05:05.260Z,29.15
2022-10-11T00:07:35.100Z,29.13
2022-10-11T00:10:04.984Z,29.12
2022-10-11T00:12:35.176Z,29.15
2022-10-11T00:15:07.352Z,29.15
2022-10-11T00:17:37.967Z,29.18
2022-10-11T00:20:08.766Z,29.14
2022-10-11T00:22:40.239Z,29.19
2022-10-11T00:25:13.815Z,29.13
2022-10-11T00:27:44.061Z,29.11
2022-10-11T00:30:14.713Z,29.11
2022-10-11T00:32:44.751Z,29.07
2022-10-11T00:35:14.658Z,29.07
2022-10-11T00:37:44.494Z,29.08
2022-10-11T00:40:18.909Z,29.10
2022-10-11T00:42:49.772Z,29.07
2022-10-11T00:45:34.714Z,29.09
2022-10-11T00:48:19.724Z,29.07
2022-10-11T00:50:50.037Z,29.08
2022-10-11T00:53:20.037Z,29.07
2022-10-11T00:56:05.304Z,29.08
2022-10-11T00:58:38.594Z,29.10
2022-10-11T01:01:08.841Z,29.11
2022-10-11T01:03:41.053Z,29.10
2022-10-11T01:06:11.842Z,29.09
2022-10-11T01:08:42.132Z,29.08
2022-10-11T01:11:18.156Z,29.09
2022-10-11T01:13:56.813Z,29.09
2022-10-11T01:17:12.640Z,29.13
2022-10-11T01:19:57.507Z,29.11
2022-10-11T01:22:59.958Z,29.11
2022-10-11T01:25:35.001Z,29.10
2022-10-11T01:28:30.307Z,29.10
2022-10-11T01:31:07.674Z,29.08
2022-10-11T01:33:53.350Z,29.11
2022-10-11T01:36:35.604Z,29.06
2022-10-11T01:39:23.929Z,29.09
2022-10-11T01:41:58.430Z,29.09
2022-10-11T01:44:29.430Z,29.08
2022-10-11T01:47:00.113Z,29.09
2022-10-11T01:49:30.728Z,29.10
2022-10-11T01:52:06.353Z,29.11
2022-10-11T01:58:00.536Z,29.13
2022-10-11T02:00:41.806Z,29.13
2022-10-11T02:03:24.003Z,29.11
2022-10-11T02:06:29.636Z,29.13
2022-10-11T02:09:14.781Z,29.12
2022-10-11T02:11:45.139Z,29.10
2022-10-11T02:14:28.977Z,29.07
2022-10-11T02:17:06.540Z,29.11
2022-10-11T02:19:45.153Z,29.12
2022-10-11T02:22:24.474Z,29.08
2022-10-11T02:24:59.850Z,29.09
2022-10-11T02:27:35.480Z,29.09
2022-10-11T02:30:09.464Z,29.07
2022-10-11T02:32:43.745Z,29.07
2022-10-11T02:35:15.051Z,29.11
2022-10-11T02:37:54.406Z,29.10
2022-10-11T02:40:35.925Z,29.15
2022-10-11T02:43:20.908Z,29.16
2022-10-11T02:45:57.261Z,29.18
2022-10-11T02:48:29.688Z,29.19
2022-10-11T02:51:00.775Z,29.20
2022-10-11T02:53:30.883Z,29.20
2022-10-11T02:56:00.751Z,29.17
2022-10-11T02:58:30.830Z,29.19
2022-10-11T03:01:01.116Z,29.20
2022-10-11T03:03:31.153Z,29.21
2022-10-11T03:06:05.740Z,29.20
2022-10-11T03:08:36.200Z,29.20
2022-10-11T03:11:06.398Z,29.19
2022-10-11T03:13:36.388Z,29.21
2022-10-11T03:16:06.372Z,29.22
2022-10-11T03:18:36.210Z,29.21
2022-10-11T03:21:06.937Z,29.23
2022-10-11T03:23:37.095Z,29.24
2022-10-11T03:26:07.529Z,29.27
2022-10-11T03:28:37.495Z,29.27
2022-10-11T03:31:07.438Z,29.26
2022-10-11T03:33:37.466Z,29.29
2022-10-11T03:36:07.989Z,29.28
2022-10-11T03:38:38.221Z,29.31
2022-10-11T03:41:08.294Z,29.32
2022-10-11T03:43:38.962Z,29.32
2022-10-11T03:46:09.361Z,29.31
2022-10-11T03:48:39.751Z,29.32
2022-10-11T03:51:09.776Z,29.33
2022-10-11T03:53:39.683Z,29.33
2022-10-11T03:56:10.091Z,29.33
2022-10-11T03:58:40.443Z,29.33
2022-10-11T04:01:11.151Z,29.34
2022-10-11T04:03:41.224Z,29.33
2022-10-11T04:06:11.086Z,29.33
2022-10-11T04:08:40.952Z,29.37
2022-10-11T04:11:10.813Z,29.36
2022-10-11T04:13:40.978Z,29.35
2022-10-11T04:16:11.094Z,29.36
2022-10-11T04:18:40.991Z,29.38
2022-10-11T04:21:11.004Z,29.38
2022-10-11T04:23:40.875Z,29.40
2022-10-11T04:26:10.948Z,29.41
2022-10-11T04:28:41.015Z,29.39
2022-10-11T04:31:11.100Z,29.42
2022-10-11T04:33:41.017Z,29.42
2022-10-11T04:36:10.968Z,29.44
2022-10-11T04:38:40.816Z,29.45
2022-10-11T04:41:16.146Z,29.43
2022-10-11T04:43:46.199Z,29.46
2022-10-11T04:46:16.413Z,29.49
2022-10-11T04:48:47.812Z,29.50
2022-10-11T04:51:17.425Z,29.51
2022-10-11T04:53:47.404Z,29.53
2022-10-11T04:56:20.551Z,29.53
2022-10-11T04:58:51.604Z,29.53
2022-10-11T05:01:21.671Z,29.54
2022-10-11T05:03:52.145Z,29.55
2022-10-11T05:06:22.263Z,29.55
2022-10-11T05:08:52.497Z,29.56
2022-10-11T05:11:22.829Z,29.57
2022-10-11T05:13:52.843Z,29.57
2022-10-11T05:16:22.716Z,29.57
2022-10-11T05:18:52.718Z,29.59
2022-10-11T05:21:30.657Z,29.58
2022-10-11T05:24:01.010Z,29.60
2022-10-11T05:26:31.382Z,29.60
2022-10-11T05:29:01.484Z,29.62
2022-10-11T05:31:31.409Z,29.63
2022-10-11T05:34:02.161Z,29.66
2022-10-11T05:36:34.735Z,29.67
2022-10-11T05:39:04.825Z,29.68
2022-10-11T05:41:34.988Z,29.70
2022-10-11T05:44:07.347Z,29.69
2022-10-11T05:46:37.472Z,29.72
2022-10-11T05:49:07.153Z,29.72
2022-10-11T05:51:37.282Z,29.70
2022-10-11T05:54:07.211Z,29.73
2022-10-11T05:56:37.065Z,29.71
2022-10-11T05:59:07.466Z,29.68
2022-10-11T06:01:37.642Z,29.67
2022-10-11T06:04:08.276Z,29.67
2022-10-11T06:06:38.296Z,29.69
2022-10-11T06:09:08.128Z,29.72
2022-10-11T06:11:38.336Z,29.69
2022-10-11T06:14:08.313Z,29.69
2022-10-11T06:16:38.190Z,29.70
2022-10-11T06:19:08.178Z,29.70
2022-10-11T06:21:38.113Z,29.70
2022-10-11T06:24:08.748Z,29.69
2022-10-11T06:26:38.745Z,29.71
2022-10-11T06:29:08.614Z,29.70
2022-10-11T06:31:38.671Z,29.71
2022-10-11T06:34:08.546Z,29.70
2022-10-11T06:36:38.569Z,29.69
2022-10-11T06:39:08.446Z,29.66
2022-10-11T06:41:39.331Z,29.66
2022-10-11T06:44:13.936Z,29.65
2022-10-11T06:46:44.485Z,29.69
2022-10-11T06:49:17.177Z,29.69
2022-10-11T06:51:49.713Z,29.68
2022-10-11T06:54:19.915Z,29.69
2022-10-11T06:56:50.039Z,29.73
2022-10-11T06:59:19.995Z,29.73
2022-10-11T07:01:49.834Z,29.75
2022-10-11T07:04:19.743Z,29.73
2022-10-11T07:06:50.152Z,29.73
2022-10-11T07:09:20.164Z,29.75
2022-10-11T07:11:51.058Z,29.77
2022-10-11T07:14:21.163Z,29.76
2022-10-11T07:16:50.984Z,29.80
2022-10-11T07:19:20.956Z,29.78
2022-10-11T07:21:50.983Z,29.78
2022-10-11T07:24:21.002Z,29.77
2022-10-11T07:26:50.875Z,29.77
2022-10-11T07:29:21.880Z,29.78
2022-10-11T07:31:51.954Z,29.78
2022-10-11T07:34:22.879Z,29.81
2022-10-11T07:36:52.903Z,29.81
2022-10-11T07:39:23.124Z,29.82
2022-10-11T07:41:52.973Z,29.82
2022-10-11T07:44:22.822Z,29.82
2022-10-11T07:46:53.878Z,29.84
2022-10-11T07:49:23.527Z,29.85
2022-10-11T07:51:53.406Z,29.86
2022-10-11T07:54:23.826Z,29.83
2022-10-11T07:56:53.880Z,29.82
2022-10-11T07:59:23.775Z,29.80
2022-10-11T08:01:54.726Z,29.84
2022-10-11T08:04:24.842Z,29.84
2022-10-11T08:06:54.668Z,29.82
2022-10-11T08:09:24.505Z,29.81
2022-10-11T08:11:54.718Z,29.82
2022-10-11T08:14:24.831Z,29.78
2022-10-11T08:16:54.657Z,29.78
2022-10-11T08:19:24.591Z,29.78
2022-10-11T08:21:54.565Z,29.82
2022-10-11T08:24:24.529Z,29.84
2022-10-11T08:26:55.004Z,29.82
2022-10-11T08:29:25.126Z,29.84
2022-10-11T08:31:55.001Z,29.85
2022-10-11T08:34:25.097Z,29.85
2022-10-11T08:36:54.963Z,29.84
2022-10-11T08:39:24.885Z,29.82
2022-10-11T08:42:19.654Z,29.83
2022-10-11T08:45:10.553Z,29.83
2022-10-11T08:47:45.338Z,29.82
2022-10-11T08:50:26.358Z,29.82
2022-10-11T08:53:06.311Z,29.83
2022-10-11T08:55:47.225Z,29.82
2022-10-11T08:58:22.007Z,29.84
2022-10-11T09:00:56.202Z,29.82
2022-10-11T09:03:44.414Z,29.84
2022-10-11T09:07:04.591Z,29.84
2022-10-11T09:10:00.238Z,29.85
2022-10-11T09:13:01.314Z,29.81
2022-10-11T09:15:47.022Z,29.84
2022-10-11T09:18:29.627Z,29.85
2022-10-11T09:21:03.466Z,29.84
2022-10-11T09:23:45.817Z,29.85
2022-10-11T09:26:32.845Z,29.84
2022-10-11T09:29:14.129Z,29.82
2022-10-11T09:31:50.063Z,29.81
2022-10-11T09:34:23.282Z,29.80
2022-10-11T09:37:17.056Z,29.83
2022-10-11T09:40:21.982Z,29.82
2022-10-11T09:42:52.765Z,29.80
2022-10-11T09:45:25.631Z,29.82
2022-10-11T09:47:58.938Z,29.82
2022-10-11T09:50:33.373Z,29.82
2022-10-11T09:53:07.785Z,29.84
2022-10-11T09:55:41.484Z,29.84
2022-10-11T09:58:37.955Z,29.85
2022-10-11T10:01:11.393Z,29.86
2022-10-11T10:03:45.789Z,29.86
2022-10-11T10:06:28.042Z,29.86
2022-10-11T10:09:28.132Z,29.85
2022-10-11T10:11:59.786Z,29.84
2022-10-11T10:14:33.315Z,29.84
2022-10-11T10:17:11.264Z,29.83
2022-10-11T10:20:03.107Z,29.83
2022-10-11T10:22:38.245Z,29.83
2022-10-11T10:25:11.911Z,29.83
2022-10-11T10:27:42.677Z,29.83
2022-10-11T10:30:15.947Z,29.84
2022-10-11T10:33:08.714Z,29.87
2022-10-11T10:36:07.797Z,29.86
2022-10-11T10:39:02.261Z,29.87
2022-10-11T10:41:33.164Z,29.87
2022-10-11T10:44:04.142Z,29.84
2022-10-11T10:47:05.160Z,29.86
2022-10-11T10:50:09.640Z,29.84
2022-10-11T10:52:46.443Z,29.83
2022-10-11T10:55:37.815Z,29.84
2022-10-11T10:58:49.847Z,29.85
2022-10-11T11:01:30.814Z,29.88
2022-10-11T11:04:29.250Z,29.87
2022-10-11T11:07:14.237Z,29.86
2022-10-11T11:10:03.522Z,29.85
2022-10-11T11:13:12.888Z,29.88
2022-10-11T11:15:51.581Z,29.87
2022-10-11T11:18:32.214Z,29.88
2022-10-11T11:21:16.588Z,29.88
2022-10-11T11:24:02.126Z,29.90
2022-10-11T11:26:52.805Z,29.89
2022-10-11T11:29:35.088Z,29.90
2022-10-11T11:32:45.523Z,29.89
2022-10-11T11:35:34.015Z,29.89
2022-10-11T11:38:14.037Z,29.91
2022-10-11T11:41:07.991Z,29.90
2022-10-11T11:43:42.683Z,29.89
2022-10-11T11:46:22.364Z,29.91
2022-10-11T11:48:55.582Z,29.87
2022-10-11T11:51:35.670Z,29.84
2022-10-11T11:54:25.283Z,29.86
2022-10-11T11:57:23.683Z,29.88
2022-10-11T12:00:06.574Z,29.86
2022-10-11T12:03:28.338Z,29.88
2022-10-11T12:06:17.418Z,29.89
2022-10-11T12:09:04.619Z,29.88
2022-10-11T12:11:41.685Z,29.89
2022-10-11T12:14:27.554Z,29.90
2022-10-11T12:17:16.070Z,29.89
2022-10-11T12:20:19.380Z,29.92
2022-10-11T12:22:53.154Z,29.88
2022-10-11T12:25:35.843Z,29.89
2022-10-11T12:28:51.685Z,29.86
2022-10-11T12:31:28.822Z,29.84
2022-10-11T12:34:19.789Z,29.85
2022-10-11T12:36:53.444Z,29.81
2022-10-11T12:39:25.688Z,29.83
2022-10-11T12:42:09.365Z,29.83
2022-10-11T12:44:40.700Z,29.85
2022-10-11T12:47:40.247Z,29.87
2022-10-11T12:50:30.674Z,29.86
2022-10-11T12:53:38.402Z,29.89
2022-10-11T12:56:40.849Z,29.87
2022-10-11T13:01:27.187Z,29.86
2022-10-11T13:04:07.141Z,29.86
2022-10-11T13:06:52.575Z,29.85
2022-10-11T13:09:39.089Z,29.85
2022-10-11T13:12:12.822Z,29.86
2022-10-11T13:14:50.319Z,29.86
2022-10-11T13:17:38.189Z,29.87
2022-10-11T13:20:16.014Z,29.87
2022-10-11T13:25:40.775Z,29.87
2022-10-11T13:28:12.381Z,29.88
2022-10-11T13:30:47.017Z,29.88
2022-10-11T13:33:48.118Z,29.87
2022-10-11T13:36:21.477Z,29.88
2022-10-11T13:38:59.923Z,29.85
2022-10-11T13:41:33.539Z,29.84
2022-10-11T13:44:06.961Z,29.84
2022-10-11T13:46:41.780Z,29.81
2022-10-11T13:49:43.164Z,29.78
2022-10-11T13:52:25.073Z,29.81
2022-10-11T13:55:08.513Z,29.78
2022-10-11T13:57:52.209Z,29.81
2022-10-11T14:00:30.452Z,29.81
2022-10-11T14:03:24.373Z,29.82
2022-10-11T14:06:01.359Z,29.75
2022-10-11T14:08:35.263Z,29.74
2022-10-11T14:11:06.831Z,29.72
2022-10-11T14:13:39.530Z,29.74
2022-10-11T14:16:15.089Z,29.71
2022-10-11T14:19:11.320Z,29.76
2022-10-11T14:21:48.386Z,29.79
2022-10-11T14:24:20.555Z,29.77
2022-10-11T14:26:54.317Z,29.80
2022-10-11T14:29:34.464Z,29.81
2022-10-11T14:32:07.322Z,29.82
2022-10-11T14:34:38.897Z,29.81
2022-10-11T14:37:09.429Z,29.82
2022-10-11T14:39:40.522Z,29.84
2022-10-11T14:42:14.832Z,29.89
2022-10-11T14:44:45.679Z,29.98
2022-10-11T14:47:20.373Z,30.12
2022-10-11T14:49:51.392Z,30.07
2022-10-11T14:52:22.212Z,30.10
2022-10-11T14:54:53.054Z,30.03
2022-10-11T14:57:23.848Z,30.00
2022-10-11T14:59:54.535Z,29.92
2022-10-11T15:02:25.233Z,29.89
2022-10-11T15:04:56.434Z,29.87
2022-10-11T15:07:26.863Z,29.85
2022-10-11T15:09:57.612Z,29.83
2022-10-11T15:12:28.357Z,29.82
2022-10-11T15:14:58.752Z,29.83
2022-10-11T15:17:29.434Z,29.87
2022-10-11T15:20:00.032Z,29.87
2022-10-11T15:22:30.734Z,29.86
2022-10-11T15:25:03.537Z,29.87
2022-10-11T15:27:34.144Z,29.90
2022-10-11T15:30:05.017Z,29.88
2022-10-11T15:32:35.681Z,29.86
2022-10-11T15:35:06.445Z,29.86
2022-10-11T15:37:37.536Z,29.86
2022-10-11T15:40:25.234Z,29.90
2022-10-11T15:42:57.894Z,29.86
2022-10-11T15:45:29.427Z,29.86
2022-10-11T15:47:59.644Z,29.83
2022-10-11T15:50:41.628Z,29.83
2022-10-11T15:53:19.816Z,29.84
2022-10-11T15:55:53.498Z,29.82
2022-10-11T15:58:25.804Z,29.82
2022-10-11T16:00:59.431Z,29.86
2022-10-11T16:03:32.858Z,29.82
2022-10-11T16:06:05.685Z,29.85
2022-10-11T16:08:37.312Z,29.85
2022-10-11T16:11:08.593Z,29.81
2022-10-11T16:13:39.737Z,29.84
2022-10-11T16:16:12.002Z,29.86
2022-10-11T16:18:43.366Z,29.82
2022-10-11T16:21:18.251Z,29.85
2022-10-11T16:23:49.084Z,29.82
2022-10-11T16:26:19.838Z,29.82
2022-10-11T16:28:50.743Z,29.83
2022-10-11T16:31:23.426Z,29.80
2022-10-11T16:33:55.603Z,29.82
2022-10-11T16:36:39.101Z,29.80
2022-10-11T16:39:18.640Z,29.81
2022-10-11T16:41:50.264Z,29.78
2022-10-11T16:44:24.340Z,29.78
2022-10-11T16:46:55.164Z,29.78
2022-10-11T16:49:28.833Z,29.81
2022-10-11T16:52:06.535Z,29.82
2022-10-11T16:54:37.223Z,29.81
2022-10-11T16:57:08.498Z,29.82
2022-10-11T16:59:38.837Z,29.80
2022-10-11T17:02:12.581Z,29.77
2022-10-11T17:04:43.375Z,29.79
2022-10-11T17:07:17.099Z,29.77
2022-10-11T17:09:49.019Z,29.79
2022-10-11T17:12:24.361Z,29.79
2022-10-11T17:14:55.228Z,29.77
2022-10-11T17:17:25.899Z,29.78
2022-10-11T17:19:56.617Z,29.75
2022-10-11T17:22:27.560Z,29.76
2022-10-11T17:24:58.325Z,29.76
2022-10-11T17:27:30.425Z,29.75
2022-10-11T17:30:01.322Z,29.80
2022-10-11T17:32:31.965Z,29.80
2022-10-11T17:35:04.666Z,29.76
2022-10-11T17:37:35.356Z,29.76
2022-10-11T17:40:06.799Z,29.77
2022-10-11T17:42:37.535Z,29.77
2022-10-11T17:45:09.071Z,29.75
2022-10-11T17:47:39.388Z,29.79
2022-10-11T17:50:10.948Z,29.75
2022-10-11T17:52:41.987Z,29.74
2022-10-11T17:55:12.959Z,29.76
2022-10-11T17:57:43.761Z,29.72
2022-10-11T18:00:15.259Z,29.73
2022-10-11T18:02:45.554Z,29.74
2022-10-11T18:05:17.347Z,29.76
2022-10-11T18:07:48.012Z,29.74
2022-10-11T18:10:18.818Z,29.77
2022-10-11T18:12:49.865Z,29.75
2022-10-11T18:15:20.681Z,29.74
2022-10-11T18:17:51.450Z,29.73
2022-10-11T18:20:22.145Z,29.73
2022-10-11T18:22:53.363Z,29.74
2022-10-11T18:25:24.056Z,29.72
2022-10-11T18:27:55.308Z,29.73
2022-10-11T18:30:25.646Z,29.72
2022-10-11T18:32:56.219Z,29.73
2022-10-11T18:35:26.980Z,29.73
2022-10-11T18:38:00.749Z,29.73
2022-10-11T18:40:32.142Z,29.70
2022-10-11T18:43:02.895Z,29.72
2022-10-11T18:45:33.917Z,29.71
2022-10-11T18:48:04.729Z,29.71
2022-10-11T18:50:38.075Z,29.71
2022-10-11T18:53:09.509Z,29.70
2022-10-11T18:55:40.294Z,29.70
2022-10-11T18:58:11.113Z,29.71
2022-10-11T19:00:41.935Z,29.71
2022-10-11T19:03:12.612Z,29.70
2022-10-11T19:05:43.467Z,29.69
2022-10-11T19:08:14.738Z,29.71
2022-10-11T19:10:45.063Z,29.70
2022-10-11T19:13:15.786Z,29.73
2022-10-11T19:15:47.207Z,29.70
2022-10-11T19:18:20.449Z,29.69
2022-10-11T19:20:51.380Z,29.73
2022-10-11T19:23:23.201Z,29.70
2022-10-11T19:25:54.005Z,29.72
2022-10-11T19:28:24.880Z,29.69
2022-10-11T19:30:55.587Z,29.68
2022-10-11T19:33:26.257Z,29.69
2022-10-11T19:35:58.474Z,29.68
2022-10-11T19:38:30.522Z,29.70
2022-10-11T19:41:03.695Z,29.67
2022-10-11T19:43:35.152Z,29.68
2022-10-11T19:46:09.782Z,29.66
2022-10-11T19:48:42.337Z,29.66
2022-10-11T19:51:20.051Z,29.67
2022-10-11T19:53:52.638Z,29.66
2022-10-11T19:56:23.858Z,29.70
2022-10-11T19:58:54.295Z,29.68
2022-10-11T20:01:27.314Z,29.70
2022-10-11T20:03:59.269Z,29.68
2022-10-11T20:06:34.558Z,29.66
2022-10-11T20:09:28.403Z,29.66
2022-10-11T20:11:59.301Z,29.61
2022-10-11T20:14:30.068Z,29.61
2022-10-11T20:17:00.868Z,29.62
2022-10-11T20:19:31.900Z,29.61
2022-10-11T20:22:04.063Z,29.61
2022-10-11T20:24:36.940Z,29.63
2022-10-11T20:27:09.553Z,29.60
2022-10-11T20:29:40.205Z,29.61
2022-10-11T20:32:10.950Z,29.59
2022-10-11T20:34:42.124Z,29.62
2022-10-11T20:37:12.976Z,29.60
2022-10-11T20:39:43.803Z,29.62
2022-10-11T20:42:14.597Z,29.60
2022-10-11T20:44:46.287Z,29.60
2022-10-11T20:47:16.928Z,29.59
2022-10-11T20:49:47.830Z,29.60
2022-10-11T20:52:18.563Z,29.61
2022-10-11T20:54:49.280Z,29.63
2022-10-11T20:57:19.925Z,29.63
2022-10-11T20:59:51.223Z,29.64
2022-10-11T21:02:22.926Z,29.63
2022-10-11T21:04:54.221Z,29.62
2022-10-11T21:07:24.610Z,29.66
2022-10-11T21:09:55.375Z,29.62
2022-10-11T21:12:26.127Z,29.63
2022-10-11T21:14:56.774Z,29.64
2022-10-11T21:17:28.634Z,29.66
2022-10-11T21:20:01.263Z,29.61
2022-10-11T21:22:32.225Z,29.61
2022-10-11T21:25:02.710Z,29.64
2022-10-11T21:27:33.792Z,29.62
2022-10-11T21:30:04.430Z,29.64
2022-10-11T21:32:36.365Z,29.61
2022-10-11T21:35:07.570Z,29.62
2022-10-11T21:37:38.349Z,29.60
2022-10-11T21:40:09.501Z,29.61
2022-10-11T21:42:40.124Z,29.60
2022-10-11T21:45:10.945Z,29.58
2022-10-11T21:47:42.776Z,29.59
2022-10-11T21:50:13.932Z,29.58
2022-10-11T21:52:44.621Z,29.59
2022-10-11T21:55:15.444Z,29.60
2022-10-11T21:57:46.331Z,29.60
2022-10-11T22:00:17.363Z,29.61
2022-10-11T22:02:48.103Z,29.63
2022-10-11T22:05:19.183Z,29.62
2022-10-11T22:07:49.876Z,29.62
2022-10-11T22:10:20.699Z,29.62
2022-10-11T22:12:51.532Z,29.62
2022-10-11T22:15:22.313Z,29.59
2022-10-11T22:17:52.849Z,29.57
2022-10-11T22:20:23.748Z,29.55
2022-10-11T22:22:54.602Z,29.54
2022-10-11T22:25:25.660Z,29.55
2022-10-11T22:27:56.914Z,29.55
2022-10-11T22:30:27.573Z,29.58
2022-10-11T22:32:58.263Z,29.55
2022-10-11T22:35:29.744Z,29.55
2022-10-11T22:38:02.204Z,29.55
2022-10-11T22:40:34.373Z,29.55
2022-10-11T22:43:05.249Z,29.53
2022-10-11T22:45:36.051Z,29.55
2022-10-11T22:48:07.042Z,29.53
2022-10-11T22:50:37.801Z,29.51
2022-10-11T22:53:10.045Z,29.56
2022-10-11T22:55:42.256Z,29.50
2022-10-11T22:58:13.623Z,29.51
2022-10-11T23:02:37.079Z,29.53
2022-10-11T23:05:07.945Z,29.49
2022-10-11T23:07:39.156Z,29.45
2022-10-11T23:10:10.032Z,29.41
2022-10-11T23:12:40.805Z,29.35
2022-10-11T23:15:12.227Z,29.35
2022-10-11T23:17:43.051Z,29.33
2022-10-11T23:20:15.588Z,29.38
2022-10-11T23:22:46.413Z,29.32
2022-10-11T23:25:17.276Z,29.36
2022-10-11T23:27:47.944Z,29.40
2022-10-11T23:30:18.763Z,29.42
2022-10-11T23:32:49.460Z,29.39
2022-10-11T23:35:22.109Z,29.41
2022-10-11T23:37:52.921Z,29.42
2022-10-11T23:40:23.858Z,29.38
2022-10-11T23:42:54.627Z,29.39
2022-10-11T23:45:25.316Z,29.38
2022-10-11T23:47:56.088Z,29.41
2022-10-11T23:50:26.675Z,29.39
2022-10-11T23:52:57.420Z,29.39
2022-10-11T23:55:28.253Z,29.40
2022-10-11T23:57:58.886Z,29.39
